Latest Weather Observations for Centre Island

IDD60801

Issued at 7:03 pm CST Friday 30 January 2015 (issued every 30 minutes, with the page automatically refreshed every 10 minutes)

About weather observations | Map of weather stations | Latest weather observations for NT | Other Formats
Station Details ID: 014703 Name: CENTRE ISLAND Lat: -15.74 Lon: 136.82 Height: 12.2 m
Data from the previous 72 hours. | See also: Recent months at Centre Island
Date/Time
CST
Temp
°C
App
Temp
°C
Dew
Point
Rel
Hum
%
Delta-T
°C
Wind Press
QNH
hPa
Press
MSL
hPa
Rain
since 9 am
mm
Dir
 
Spd
km/h
Gust
km/h
Spd
kts
Gust
kts
30/07:00pm 31.3 32.5 20.6 53 7.1 NNW 15 20 8 11 1004.3 1004.2 0.0
30/06:30pm 32.6 32.5 18.8 44 9.0 NNW 17 24 9 13 1003.9 1003.8 0.0
30/06:00pm 34.1 33.6 17.8 38 10.6 NNW 17 22 9 12 1003.6 1003.5 0.0
30/05:30pm 35.3 35.1 17.5 34 11.5 NNW 15 20 8 11 1003.0 1002.9 0.0
30/05:00pm 36.1 35.7 16.3 31 12.6 NNW 13 17 7 9 1002.9 1002.8 0.0
30/04:30pm 37.4 36.8 13.4 24 14.8 W 9 11 5 6 1003.1 1003.0 0.0
30/04:00pm 37.3 36.8 12.7 23 15.0 W 7 11 4 6 1003.2 1003.1 0.0
30/03:30pm 36.1 35.5 11.7 23 14.6 SE 6 7 3 4 1003.3 1003.2 0.0
30/03:00pm 35.8 35.9 15.5 29 12.8 E 9 13 5 7 1003.5 1003.4 0.0
30/02:30pm 35.4 34.8 13.5 26 13.4 ENE 9 11 5 6 1003.9 1003.8 0.0
30/02:00pm 36.4 37.7 17.0 31 12.5 S 6 9 3 5 1004.3 1004.2 0.0
30/01:30pm 35.4 35.6 15.7 31 12.4 S 9 11 5 6 1004.6 1004.5 0.0
30/01:00pm 35.2 34.9 15.5 30 12.4 SSW 11 15 6 8 1005.0 1004.9 0.0
30/12:30pm 35.5 35.3 15.8 31 12.5 SSW 11 15 6 8 1005.4 1005.3 0.0
30/12:00pm 34.3 34.1 16.6 34 11.3 WSW 13 15 7 8 1005.7 1005.6 0.0
30/11:30am 34.0 33.5 16.8 35 11.0 WSW 15 17 8 9 1005.9 1005.8 0.0
30/11:00am 33.7 32.7 16.5 35 10.9 WSW 17 19 9 10 1006.2 1006.1 0.0
30/10:30am 32.9 31.9 16.7 38 10.3 WSW 17 19 9 10 1006.4 1006.3 0.0
30/10:00am 32.5 30.9 15.1 35 10.8 WSW 17 19 9 10 1006.4 1006.3 0.0
30/09:30am 31.5 30.4 16.3 40 9.6 W 17 20 9 11 1006.6 1006.5 0.0
30/09:00am 31.6 30.8 15.1 36 10.2 WSW 13 17 7 9 1006.5 1006.4 0.0
30/08:30am 30.8 30.6 15.6 39 9.4 W 11 15 6 8 1006.5 1006.4 0.0
30/08:00am 29.7 29.8 17.5 48 7.7 W 13 15 7 8 1006.4 1006.3 0.0
30/07:30am 29.1 28.6 17.0 48 7.6 W 15 17 8 9 1006.3 1006.2 0.0
30/07:00am 28.1 27.9 17.6 53 6.6 W 15 17 8 9 1005.9 1005.8 0.0
30/06:30am 27.2 28.6 19.5 62 5.0 W 11 13 6 7 1005.6 1005.5 0.0
30/06:00am 27.2 28.2 19.5 62 5.0 W 13 15 7 8 1005.4 1005.3 0.0
30/05:30am 27.0 28.3 20.1 66 4.5 W 13 17 7 9 1005.1 1005.0 0.0
30/05:00am 28.2 29.6 21.0 65 4.8 W 15 22 8 12 1004.7 1004.6 0.0
30/04:30am 29.0 28.6 21.0 62 5.3 WSW 24 28 13 15 1004.5 1004.4 0.0
30/04:00am 28.6 29.6 22.1 68 4.4 W 20 24 11 13 1004.5 1004.4 0.0
30/03:30am 28.2 29.5 22.4 71 3.9 W 19 22 10 12 1004.6 1004.5 0.0
30/03:00am 27.8 30.1 22.7 74 3.5 W 15 19 8 10 1004.6 1004.5 0.0
30/02:30am 27.9 30.7 23.7 78 2.9 W 15 19 8 10 1004.7 1004.6 0.0
30/02:00am 28.6 32.5 24.8 80 2.7 W 13 17 7 9 1005.0 1004.9 0.0
30/01:30am 28.6 32.5 24.2 77 3.1 W 11 15 6 8 1005.3 1005.2 0.0
30/01:00am 28.3 31.2 22.5 71 3.9 NW 11 13 6 7 1005.6 1005.5 0.0
30/12:30am 28.5 31.3 22.3 69 4.2 NW 11 13 6 7 1005.9 1005.8 0.0
30/12:00am 28.1 30.9 21.6 68 4.4 NNW 9 13 5 7 1006.1 1006.0 0.0
 
Date/Time
CST
Temp
°C
App
Temp
°C
Dew
Point
Rel
Hum
%
Delta-T
°C
Wind Press
QNH
hPa
Press
MSL
hPa
Rain
since 9 am
mm
Dir
 
Spd
km/h
Gust
km/h
Spd
kts
Gust
kts
29/11:30pm 28.6 30.8 21.9 67 4.5 NW 13 17 7 9 1006.2 1006.1 0.0
29/11:00pm 28.5 30.8 21.3 65 4.8 NNW 11 15 6 8 1006.1 1006.0 0.0
29/10:30pm 28.7 31.2 21.7 66 4.7 NNW 11 15 6 8 1006.0 1005.9 0.0
29/10:00pm 29.0 31.9 22.5 68 4.4 NNW 11 15 6 8 1005.8 1005.7 0.0
29/09:30pm 29.2 31.8 21.9 64 4.9 NNW 11 15 6 8 1005.7 1005.6 0.0
29/09:00pm 29.7 32.1 22.2 64 5.1 N 13 17 7 9 1005.3 1005.2 0.0
29/08:30pm 29.7 32.1 21.6 61 5.5 NNW 11 13 6 7 1005.1 1005.0 0.0
29/08:00pm 30.5 32.9 21.6 59 6.0 N 11 15 6 8 1004.8 1004.7 0.0
29/07:30pm 30.9 32.9 20.8 55 6.8 N 11 15 6 8 1004.7 1004.6 0.0
29/07:00pm 31.5 33.0 19.8 49 7.7 N 11 15 6 8 1004.4 1004.3 0.0
29/06:30pm 32.8 34.3 18.9 43 9.1 NW 9 15 5 8 1004.1 1004.0 0.0
29/06:00pm 35.2 35.1 15.0 30 12.6 W 9 13 5 7 1003.8 1003.7 0.0
29/05:30pm 35.5 34.2 14.7 28 13.0 WSW 15 17 8 9 1003.5 1003.4 0.0
29/05:00pm 36.1 34.0 11.0 22 14.8 WSW 13 15 7 8 1003.3 1003.2 0.0
29/04:30pm 36.2 33.9 10.4 21 15.1 W 13 17 7 9 1003.0 1002.9 0.0
29/04:00pm 36.8 34.4 10.2 20 15.6 WSW 13 17 7 9 1002.9 1002.8 0.0
29/03:30pm 36.2 33.7 9.7 20 15.4 WSW 13 15 7 8 1002.9 1002.8 0.0
29/03:00pm 36.1 33.6 9.6 20 15.4 WSW 13 15 7 8 1003.4 1003.3 0.0
29/02:30pm 36.0 33.8 9.5 20 15.3 WSW 11 15 6 8 1003.6 1003.5 0.0
29/02:00pm 35.8 34.2 10.1 21 14.9 W 9 11 5 6 1004.0 1003.9 0.0
29/01:30pm 35.3 34.3 13.5 27 13.3 WSW 11 15 6 8 1004.4 1004.3 0.0
29/01:00pm 34.6 34.0 14.5 30 12.4 WSW 11 15 6 8 1004.9 1004.8 0.0
29/12:30pm 34.0 33.4 14.5 31 12.0 WSW 11 13 6 7 1005.4 1005.3 0.0
29/12:00pm 33.2 32.3 13.8 31 11.8 W 11 13 6 7 1005.5 1005.4 0.0
29/11:30am 33.1 33.0 16.0 35 10.8 WSW 11 13 6 7 1005.5 1005.4 0.0
29/11:00am 32.2 34.1 20.5 50 7.8 WSW 11 15 6 8 1005.6 1005.5 0.0
29/10:30am 31.5 33.9 22.2 57 6.3 WSW 13 15 7 8 1005.8 1005.7 0.0
29/10:00am 30.6 34.0 24.0 68 4.6 WSW 13 15 7 8 1006.1 1006.0 0.0
29/09:30am 30.8 34.3 24.2 68 4.6 SW 13 15 7 8 1006.1 1006.0 0.0
29/09:00am 30.3 33.7 24.0 69 4.4 WSW 13 17 7 9 1006.0 1005.9 0.0
29/08:30am 30.1 34.0 24.3 71 4.0 SSW 11 15 6 8 1005.8 1005.7 0.0
29/08:00am 29.5 32.9 23.4 69 4.2 SSW 11 13 6 7 1005.6 1005.5 0.0
29/07:30am 28.9 31.9 23.3 72 3.9 S 13 17 7 9 1005.3 1005.2 0.0
29/07:00am 28.3 31.3 23.4 75 3.4 S 13 15 7 8 1004.9 1004.8 0.0
29/06:30am 27.9 31.6 23.9 79 2.8 S 11 13 6 7 1004.6 1004.5 0.0
29/06:00am 27.7 32.2 23.9 80 2.6 SSW 7 11 4 6 1004.2 1004.1 0.0
29/05:30am 27.8 31.8 23.8 79 2.8 S 9 11 5 6 1004.0 1003.9 0.0
29/05:00am 28.1 31.9 24.1 79 2.8 SSW 11 15 6 8 1003.6 1003.5 0.0
29/04:30am 27.9 31.5 23.7 78 2.9 SSW 11 13 6 7 1003.5 1003.4 0.0
29/04:00am 28.0 31.3 23.8 78 2.9 SSW 13 17 7 9 1003.7 1003.6 0.0
29/03:30am 28.0 31.1 24.2 80 2.6 SSW 15 17 8 9 1003.9 1003.8 0.0
29/03:00am 28.2 32.1 24.8 82 2.4 SW 13 17 7 9 1003.7 1003.6 0.0
29/02:30am 28.4 33.8 25.4 84 2.1 W 7 9 4 5 1003.9 1003.8 0.0
29/02:00am 28.5 33.6 24.9 81 2.5 W 7 9 4 5 1004.1 1004.0 0.0
29/01:30am 28.6 32.7 25.2 82 2.4 WSW 13 17 7 9 1004.3 1004.2 0.0
29/01:00am 27.9 32.8 24.7 83 2.2 WNW 7 9 4 5 1004.4 1004.3 0.0
29/12:30am 28.5 32.9 24.5 79 2.8 NNW 9 11 5 6 1004.7 1004.6 0.0
29/12:00am 29.5 33.0 24.8 76 3.3 NNE 15 19 8 10 1004.7 1004.6 0.0
 
Date/Time
CST
Temp
°C
App
Temp
°C
Dew
Point
Rel
Hum
%
Delta-T
°C
Wind Press
QNH
hPa
Press
MSL
hPa
Rain
since 9 am
mm
Dir
 
Spd
km/h
Gust
km/h
Spd
kts
Gust
kts
28/11:30pm 29.7 33.1 24.6 74 3.6 NNE 15 20 8 11 1005.0 1004.9 0.0
28/11:00pm 29.8 32.7 24.4 73 3.8 NNE 17 22 9 12 1005.0 1004.9 0.0
28/10:30pm 30.0 32.6 23.9 70 4.2 NE 17 20 9 11 1004.9 1004.8 0.0
28/10:00pm 30.0 32.3 23.4 67 4.5 NE 17 22 9 12 1005.0 1004.9 0.0
28/09:30pm 30.0 32.2 23.9 70 4.2 NE 19 24 10 13 1004.7 1004.6 0.0
28/09:00pm 30.2 32.6 24.6 72 3.9 NE 20 28 11 15 1004.5 1004.4 0.0
28/08:30pm 30.2 31.6 22.9 65 5.0 NE 20 26 11 14 1004.4 1004.3 0.0
28/08:00pm 30.2 31.9 23.1 65 4.9 NE 19 26 10 14 1004.1 1004.0 0.0
28/07:30pm 30.3 31.5 22.5 63 5.3 ENE 20 24 11 13 1003.9 1003.8 0.0
28/07:00pm 30.6 31.4 22.5 62 5.5 ENE 22 28 12 15 1003.5 1003.4 0.0
28/06:30pm 31.0 31.5 22.6 61 5.8 E 24 28 13 15 1002.8 1002.7 0.0
28/06:00pm 31.2 31.6 22.5 60 6.0 E 24 28 13 15 1002.5 1002.4 0.0
28/05:30pm 31.7 32.2 22.7 59 6.2 E 24 32 13 17 1002.4 1002.3 0.0
28/05:00pm 32.6 33.3 23.0 57 6.6 ENE 24 30 13 16 1002.2 1002.1 0.0
28/04:30pm 33.5 33.8 21.6 49 8.1 E 22 28 12 15 1002.2 1002.1 0.0
28/04:00pm 34.0 34.4 23.1 53 7.5 E 26 32 14 17 1002.2 1002.1 0.0
28/03:30pm 33.8 33.9 22.6 52 7.7 E 26 32 14 17 1002.0 1001.9 0.0
28/03:00pm 33.9 32.8 21.7 49 8.3 E 30 35 16 19 1002.0 1001.9 0.0
28/02:30pm 34.0 32.7 22.1 50 8.2 ESE 32 35 17 19 1002.3 1002.2 0.0
28/02:00pm 33.9 32.9 22.7 52 7.7 ESE 32 39 17 21 1002.5 1002.4 0.0
28/01:30pm 34.2 33.2 22.6 50 8.0 ESE 32 37 17 20 1002.6 1002.5 0.0
28/01:00pm 34.6 33.8 20.9 44 9.2 ESE 26 33 14 18 1003.0 1002.9 0.0
28/12:30pm 34.9 33.9 18.9 39 10.5 ESE 22 28 12 15 1003.2 1003.1 0.0
28/12:00pm 34.4 33.4 19.6 41 9.8 ESE 24 28 13 15 1003.6 1003.5 0.0
28/11:30am 34.0 31.7 18.5 40 10.1 ESE 28 32 15 17 1003.8 1003.7 0.0
28/11:00am 33.8 31.7 17.1 37 10.7 ESE 24 30 13 16 1004.1 1004.0 0.0
28/10:30am 33.5 29.6 15.5 34 11.3 ESE 30 33 16 18 1004.3 1004.2 0.0
28/10:00am 33.1 31.3 15.6 35 10.9 SSE 19 22 10 12 1004.6 1004.5 0.0
28/09:30am 32.5 30.7 15.5 36 10.6 SSE 19 22 10 12 1004.5 1004.4 0.0
28/09:00am 32.3 30.0 15.7 36 10.4 SSE 22 26 12 14 1004.3 1004.2 0.0
28/08:30am 31.8 31.3 17.7 43 9.1 S 17 20 9 11 1004.2 1004.1 0.0
28/08:00am 29.7 31.9 23.9 71 4.0 WSW 19 22 10 12 1004.3 1004.2 0.0
28/07:30am 29.3 33.1 25.9 82 2.4 WSW 17 22 9 12 1004.1 1004.0 0.0
28/07:00am 28.8 32.4 25.6 83 2.3 WSW 17 20 9 11 1003.9 1003.8 0.0
28/06:30am 28.3 32.4 25.7 86 1.8 WSW 15 19 8 10 1003.8 1003.7 0.0
28/06:00am 28.3 32.7 25.7 86 1.8 WSW 13 17 7 9 1003.4 1003.3 0.0
28/05:30am 28.5 33.1 25.9 86 1.8 WSW 13 17 7 9 1002.9 1002.8 0.0
28/05:00am 28.8 33.8 26.0 85 2.0 WSW 11 13 6 7 1002.9 1002.8 0.0
28/04:30am 28.7 34.5 26.1 86 1.9 W 7 11 4 6 1003.1 1003.0 0.0
28/04:00am 28.7 34.3 25.7 84 2.1 W 7 9 4 5 1002.9 1002.8 0.0
28/03:30am 28.3 33.5 25.1 83 2.2 NW 7 7 4 4 1002.8 1002.7 0.0
28/03:00am 28.4 33.5 25.0 82 2.4 NW 7 7 4 4 1002.9 1002.8 0.0
28/02:30am 28.6 33.9 25.2 82 2.4 WNW 7 9 4 5 1003.2 1003.1 0.0
28/02:00am 29.2 34.2 25.4 80 2.7 W 9 13 5 7 1003.4 1003.3 0.0
28/01:30am 28.9 33.8 25.3 81 2.5 W 9 13 5 7 1003.6 1003.5 0.0
28/01:00am 28.5 33.2 24.9 81 2.5 W 9 11 5 6 1004.1 1004.0 0.0
28/12:30am 28.4 32.8 24.4 79 2.8 NNW 9 13 5 7 1004.3 1004.2 0.0
28/12:00am 28.5 32.9 24.5 79 2.8 NNW 9 13 5 7 1004.5 1004.4 0.0
 
Date/Time
CST
Temp
°C
App
Temp
°C
Dew
Point
Rel
Hum
%
Delta-T
°C
Wind Press
QNH
hPa
Press
MSL
hPa
Rain
since 9 am
mm
Dir
 
Spd
km/h
Gust
km/h
Spd
kts
Gust
kts
27/11:30pm 28.5 33.1 24.7 80 2.7 NNW 9 13 5 7 1004.7 1004.6 0.0
27/11:00pm 28.9 33.3 24.5 77 3.1 NNW 9 13 5 7 1004.9 1004.8 0.0
27/10:30pm 29.4 33.2 24.7 76 3.3 N 13 17 7 9 1004.8 1004.7 0.0
27/10:00pm 29.6 33.4 24.7 75 3.4 N 13 19 7 10 1004.5 1004.4 0.0
27/09:30pm 29.8 33.4 24.4 73 3.8 N 13 19 7 10 1004.3 1004.2 0.0
27/09:00pm 29.9 33.2 24.5 73 3.8 NNE 15 17 8 9 1004.1 1004.0 0.0
27/08:30pm 30.0 33.9 24.2 71 4.0 NNE 11 15 6 8 1003.9 1003.8 0.0
27/08:00pm 30.1 34.4 24.3 71 4.0 NNE 9 11 5 6 1003.6 1003.5 0.0
27/07:30pm 30.1 34.5 23.8 69 4.4 NE 7 9 4 5 1003.4 1003.3 0.0

Other Formats:

Comma delimited format used in spreadsheet applications
http://www.bom.gov.au/fwo/IDD60801/IDD60801.94248.axf

JavaScript Object Notation format (JSON) in row-major order
http://www.bom.gov.au/fwo/IDD60801/IDD60801.94248.json